createdAt,value
2022-08-31T00:02:28.248Z,100733.66
2022-08-31T00:04:58.441Z,100742.53
2022-08-31T00:07:28.702Z,100733.84
2022-08-31T00:09:57.485Z,100736.84
2022-08-31T00:12:26.140Z,100736.19
2022-08-31T00:14:54.805Z,100740.19
2022-08-31T00:17:23.448Z,100737.03
2022-08-31T00:19:51.818Z,100741.88
2022-08-31T00:22:22.036Z,100745.06
2022-08-31T00:24:50.682Z,100744.53
2022-08-31T00:27:19.403Z,100744.22
2022-08-31T00:29:48.205Z,100746.69
2022-08-31T00:32:16.893Z,100757.19
2022-08-31T00:34:49.994Z,100755.88
2022-08-31T00:37:18.732Z,100759.03
2022-08-31T00:39:48.892Z,100751.19
2022-08-31T00:42:17.576Z,100753.50
2022-08-31T00:44:46.632Z,100752.03
2022-08-31T00:47:15.729Z,100756.69
2022-08-31T00:49:47.661Z,100757.84
2022-08-31T00:52:18.455Z,100766.84
2022-08-31T00:54:51.272Z,100766.34
2022-08-31T00:57:20.926Z,100764.00
2022-08-31T01:00:05.957Z,100759.84
2022-08-31T01:02:35.004Z,100753.97
2022-08-31T01:05:03.785Z,100767.63
2022-08-31T01:07:32.484Z,100761.81
2022-08-31T01:10:02.697Z,100757.81
2022-08-31T01:12:32.045Z,100760.78
2022-08-31T01:15:03.415Z,100759.44
2022-08-31T01:17:33.343Z,100759.78
2022-08-31T01:20:10.699Z,100762.94
2022-08-31T01:22:43.539Z,100762.75
2022-08-31T01:25:14.670Z,100762.41
2022-08-31T01:27:43.628Z,100766.69
2022-08-31T01:30:14.763Z,100755.69
2022-08-31T01:32:43.459Z,100760.66
2022-08-31T01:35:12.367Z,100760.47
2022-08-31T01:37:40.898Z,100758.28
2022-08-31T01:40:11.775Z,100760.59
2022-08-31T01:42:41.744Z,100760.03
2022-08-31T01:45:12.143Z,100761.34
2022-08-31T01:47:41.695Z,100763.50
2022-08-31T01:50:10.844Z,100759.16
2022-08-31T01:52:39.814Z,100755.97
2022-08-31T01:55:09.405Z,100757.94
2022-08-31T01:57:38.415Z,100761.78
2022-08-31T02:00:29.848Z,100761.78
2022-08-31T02:03:01.591Z,100758.44
2022-08-31T02:05:31.309Z,100761.41
2022-08-31T02:08:01.762Z,100757.38
2022-08-31T02:10:31.260Z,100751.56
2022-08-31T02:13:00.884Z,100753.00
2022-08-31T02:15:34.939Z,100764.97
2022-08-31T02:18:03.579Z,100756.63
2022-08-31T02:20:32.360Z,100755.25
2022-08-31T02:23:03.503Z,100748.41
2022-08-31T02:25:32.199Z,100747.91
2022-08-31T02:28:03.188Z,100749.06
2022-08-31T02:30:32.032Z,100752.03
2022-08-31T02:33:03.218Z,100743.81
2022-08-31T02:35:31.940Z,100744.09
2022-08-31T02:38:01.585Z,100746.94
2022-08-31T02:40:30.714Z,100750.72
2022-08-31T02:42:59.496Z,100747.25
2022-08-31T02:45:28.627Z,100747.25
2022-08-31T02:48:06.429Z,100745.78
2022-08-31T02:50:43.548Z,100749.97
2022-08-31T02:53:14.363Z,100743.50
2022-08-31T02:55:44.085Z,100749.38
2022-08-31T02:58:13.485Z,100753.53
2022-08-31T03:00:46.586Z,100754.72
2022-08-31T03:03:18.238Z,100751.59
2022-08-31T03:05:47.153Z,100760.94
2022-08-31T03:08:16.310Z,100751.81
2022-08-31T03:10:47.287Z,100757.00
2022-08-31T03:13:15.967Z,100756.69
2022-08-31T03:15:45.474Z,100753.84
2022-08-31T03:18:19.196Z,100761.66
2022-08-31T03:20:47.949Z,100757.88
2022-08-31T03:23:16.768Z,100761.34
2022-08-31T03:25:45.363Z,100760.22
2022-08-31T03:28:14.872Z,100759.06
2022-08-31T03:30:49.991Z,100765.06
2022-08-31T03:33:20.265Z,100764.75
2022-08-31T03:35:49.254Z,100768.25
2022-08-31T03:38:18.110Z,100765.28
2022-08-31T03:40:46.675Z,100771.44
2022-08-31T03:43:16.219Z,100775.44
2022-08-31T03:45:45.820Z,100776.81
2022-08-31T03:48:15.131Z,100780.84
2022-08-31T03:50:47.710Z,100775.19
2022-08-31T03:53:25.686Z,100782.22
2022-08-31T03:56:01.886Z,100780.06
2022-08-31T03:58:33.565Z,100784.09
2022-08-31T04:01:02.679Z,100778.25
2022-08-31T04:03:51.329Z,100768.66
2022-08-31T04:06:42.264Z,100764.66
2022-08-31T04:09:31.521Z,100774.69
2022-08-31T04:12:32.246Z,100774.53
2022-08-31T04:15:30.223Z,100778.22
2022-08-31T04:18:01.917Z,100779.22
2022-08-31T04:20:50.422Z,100776.75
2022-08-31T04:23:21.005Z,100783.72
2022-08-31T04:25:53.698Z,100781.91
2022-08-31T04:28:22.415Z,100788.72
2022-08-31T04:30:52.062Z,100790.09
2022-08-31T04:33:22.752Z,100800.44
2022-08-31T04:35:51.389Z,100797.75
2022-08-31T04:38:22.805Z,100798.59
2022-08-31T04:40:52.499Z,100792.78
2022-08-31T04:43:23.710Z,100801.13
2022-08-31T04:45:53.478Z,100799.28
2022-08-31T04:48:23.056Z,100808.47
2022-08-31T04:50:52.127Z,100807.00
2022-08-31T04:53:22.225Z,100807.34
2022-08-31T04:55:50.971Z,100803.03
2022-08-31T04:58:23.697Z,100808.03
2022-08-31T05:00:53.838Z,100803.03
2022-08-31T05:03:53.038Z,100802.22
2022-08-31T05:06:22.989Z,100800.72
2022-08-31T05:08:55.473Z,100805.22
2022-08-31T05:11:25.379Z,100798.56
2022-08-31T05:13:53.963Z,100806.78
2022-08-31T05:16:22.840Z,100791.25
2022-08-31T05:18:52.196Z,100791.91
2022-08-31T05:21:28.158Z,100798.25
2022-08-31T05:23:59.888Z,100801.91
2022-08-31T05:26:31.368Z,100789.19
2022-08-31T05:29:00.838Z,100794.84
2022-08-31T05:31:30.857Z,100805.03
2022-08-31T05:34:02.539Z,100799.53
2022-08-31T05:36:38.492Z,100819.50
2022-08-31T05:39:11.756Z,100816.78
2022-08-31T05:41:40.996Z,100817.75
2022-08-31T05:44:10.323Z,100814.34
2022-08-31T05:46:40.891Z,100810.84
2022-08-31T05:49:10.954Z,100807.53
2022-08-31T05:51:40.579Z,100803.03
2022-08-31T05:54:12.154Z,100807.25
2022-08-31T05:56:42.909Z,100810.38
2022-08-31T05:59:12.979Z,100805.25
2022-08-31T06:01:42.518Z,100807.16
2022-08-31T06:04:26.304Z,100806.84
2022-08-31T06:06:57.369Z,100816.72
2022-08-31T06:09:30.975Z,100821.00
2022-08-31T06:11:59.785Z,100825.16
2022-08-31T06:14:28.444Z,100825.03
2022-08-31T06:16:57.742Z,100824.31
2022-08-31T06:19:26.051Z,100831.25
2022-08-31T06:21:57.809Z,100836.16
2022-08-31T06:24:30.962Z,100824.56
2022-08-31T06:27:00.199Z,100828.63
2022-08-31T06:29:36.396Z,100827.91
2022-08-31T06:32:11.103Z,100819.69
2022-08-31T06:34:43.632Z,100830.41
2022-08-31T06:37:18.798Z,100828.59
2022-08-31T06:40:09.336Z,100825.84
2022-08-31T06:43:09.701Z,100829.59
2022-08-31T06:45:58.574Z,100828.59
2022-08-31T06:48:32.807Z,100825.25
2022-08-31T06:51:01.803Z,100814.38
2022-08-31T06:53:31.191Z,100827.50
2022-08-31T06:56:23.794Z,100828.63
2022-08-31T06:59:12.943Z,100828.53
2022-08-31T07:02:00.794Z,100826.44
2022-08-31T07:04:34.910Z,100830.91
2022-08-31T07:07:03.618Z,100832.94
2022-08-31T07:09:32.406Z,100832.84
2022-08-31T07:12:02.156Z,100820.56
2022-08-31T07:14:30.834Z,100832.81
2022-08-31T07:17:03.057Z,100826.47
2022-08-31T07:19:32.726Z,100836.31
2022-08-31T07:22:02.952Z,100826.84
2022-08-31T07:24:34.439Z,100822.81
2022-08-31T07:27:08.730Z,100818.44
2022-08-31T07:29:42.044Z,100816.97
2022-08-31T07:32:17.562Z,100831.28
2022-08-31T07:34:46.410Z,100827.22
2022-08-31T07:37:44.480Z,100829.31
2022-08-31T07:40:31.369Z,100833.91
2022-08-31T07:43:04.764Z,100831.56
2022-08-31T07:45:37.757Z,100823.16
2022-08-31T07:48:08.301Z,100825.19
2022-08-31T07:50:59.374Z,100838.38
2022-08-31T07:53:47.708Z,100835.13
2022-08-31T07:56:36.407Z,100822.78
2022-08-31T07:59:15.140Z,100823.06
2022-08-31T08:01:45.304Z,100813.72
2022-08-31T08:04:25.406Z,100824.25
2022-08-31T08:07:15.150Z,100814.41
2022-08-31T08:10:03.460Z,100828.72
2022-08-31T08:13:04.845Z,100822.00
2022-08-31T08:15:54.256Z,100816.44
2022-08-31T08:18:51.136Z,100822.91
2022-08-31T08:21:23.248Z,100831.06
2022-08-31T08:23:52.347Z,100848.34
2022-08-31T08:26:54.283Z,100834.78
2022-08-31T08:29:39.584Z,100840.09
2022-08-31T08:32:13.163Z,100843.13
2022-08-31T08:34:44.506Z,100836.81
2022-08-31T08:37:14.112Z,100835.66
2022-08-31T08:39:43.473Z,100841.06
2022-08-31T08:42:22.105Z,100842.97
2022-08-31T08:44:50.919Z,100839.28
2022-08-31T08:47:25.560Z,100843.00
2022-08-31T08:50:03.855Z,100845.88
2022-08-31T08:52:41.452Z,100840.66
2022-08-31T08:55:12.329Z,100840.63
2022-08-31T08:57:42.609Z,100843.81
2022-08-31T09:00:14.664Z,100838.84
2022-08-31T09:02:58.509Z,100834.31
2022-08-31T09:06:00.400Z,100832.84
2022-08-31T09:09:08.488Z,100841.91
2022-08-31T09:11:50.548Z,100839.28
2022-08-31T09:14:28.786Z,100831.72
2022-08-31T09:17:02.952Z,100835.97
2022-08-31T09:19:53.690Z,100830.19
2022-08-31T09:22:22.505Z,100831.28
2022-08-31T09:24:53.113Z,100830.16
2022-08-31T09:27:46.797Z,100833.34
2022-08-31T09:30:18.662Z,100827.81
2022-08-31T09:32:56.978Z,100826.13
2022-08-31T09:35:34.210Z,100825.28
2022-08-31T09:38:07.792Z,100817.78
2022-08-31T09:40:40.100Z,100803.97
2022-08-31T09:43:11.072Z,100817.56
2022-08-31T09:45:53.814Z,100808.25
2022-08-31T09:48:43.440Z,100818.13
2022-08-31T09:51:22.455Z,100813.06
2022-08-31T09:54:10.693Z,100808.19
2022-08-31T09:56:55.499Z,100806.66
2022-08-31T09:59:34.100Z,100806.94
2022-08-31T10:02:02.899Z,100797.69
2022-08-31T10:04:38.416Z,100802.22
2022-08-31T10:07:14.266Z,100805.38
2022-08-31T10:09:46.993Z,100786.47
2022-08-31T10:12:21.094Z,100789.59
2022-08-31T10:14:52.375Z,100798.44
2022-08-31T10:17:26.364Z,100786.56
2022-08-31T10:20:06.442Z,100795.50
2022-08-31T10:22:41.125Z,100793.53
2022-08-31T10:25:17.257Z,100796.13
2022-08-31T10:27:48.693Z,100803.28
2022-08-31T10:30:27.828Z,100809.97
2022-08-31T10:33:01.199Z,100795.97
2022-08-31T10:35:36.378Z,100788.47
2022-08-31T10:38:21.313Z,100784.25
2022-08-31T10:40:52.603Z,100776.81
2022-08-31T10:43:24.170Z,100784.16
2022-08-31T10:45:54.326Z,100772.81
2022-08-31T10:48:25.190Z,100774.66
2022-08-31T10:51:05.648Z,100757.78
2022-08-31T10:53:45.737Z,100765.69
2022-08-31T10:56:16.618Z,100776.84
2022-08-31T10:58:57.591Z,100779.19
2022-08-31T11:01:32.270Z,100766.19
2022-08-31T11:04:15.843Z,100768.22
2022-08-31T11:06:49.738Z,100774.19
2022-08-31T11:09:23.602Z,100769.34
2022-08-31T11:11:57.538Z,100780.47
2022-08-31T11:15:06.413Z,100771.44
2022-08-31T11:17:49.979Z,100768.06
2022-08-31T11:20:39.942Z,100761.63
2022-08-31T11:23:26.828Z,100749.75
2022-08-31T11:26:24.117Z,100740.63
2022-08-31T11:28:55.504Z,100747.09
2022-08-31T11:31:27.372Z,100757.44
2022-08-31T11:34:15.591Z,100755.00
2022-08-31T11:36:50.531Z,100757.91
2022-08-31T11:39:36.726Z,100762.53
2022-08-31T11:42:12.437Z,100759.19
2022-08-31T11:45:01.843Z,100758.84
2022-08-31T11:47:41.573Z,100739.63
2022-08-31T11:50:55.041Z,100738.63
2022-08-31T11:53:31.844Z,100734.47
2022-08-31T11:56:04.129Z,100740.13
2022-08-31T11:58:35.988Z,100741.28
2022-08-31T12:01:30.848Z,100734.91
2022-08-31T12:04:03.926Z,100732.50
2022-08-31T12:07:00.654Z,100720.75
2022-08-31T12:09:52.088Z,100727.84
2022-08-31T12:12:31.474Z,100724.22
2022-08-31T12:15:09.043Z,100721.41
2022-08-31T12:17:47.066Z,100711.22
2022-08-31T12:20:18.741Z,100710.34
2022-08-31T12:23:32.212Z,100695.66
2022-08-31T12:26:31.621Z,100697.22
2022-08-31T12:29:24.983Z,100695.91
2022-08-31T12:32:18.330Z,100687.56
2022-08-31T12:34:49.912Z,100687.91
2022-08-31T12:37:29.577Z,100680.56
2022-08-31T12:40:13.520Z,100678.94
2022-08-31T12:42:48.143Z,100676.41
2022-08-31T12:45:18.505Z,100672.56
2022-08-31T12:47:56.229Z,100667.69
2022-08-31T12:50:30.810Z,100670.72
2022-08-31T12:53:33.857Z,100662.50
2022-08-31T12:56:06.593Z,100665.94
2022-08-31T12:58:51.186Z,100662.66
2022-08-31T13:01:23.219Z,100668.28
2022-08-31T13:03:56.745Z,100655.31
2022-08-31T13:06:28.176Z,100663.81
2022-08-31T13:08:59.048Z,100654.66
2022-08-31T13:11:35.282Z,100655.88
2022-08-31T13:14:12.570Z,100656.78
2022-08-31T13:16:42.967Z,100651.91
2022-08-31T13:19:19.329Z,100645.75
2022-08-31T13:21:51.557Z,100636.47
2022-08-31T13:24:28.430Z,100637.31
2022-08-31T13:27:09.392Z,100644.97
2022-08-31T13:29:44.232Z,100651.19
2022-08-31T13:32:14.830Z,100657.09
2022-08-31T13:34:44.147Z,100661.00
2022-08-31T13:37:15.487Z,100655.63
2022-08-31T13:39:46.183Z,100657.16
2022-08-31T13:42:25.878Z,100655.63
2022-08-31T13:44:56.244Z,100645.47
2022-08-31T13:47:27.581Z,100656.66
2022-08-31T13:50:07.299Z,100649.94
2022-08-31T13:52:37.082Z,100642.41
2022-08-31T13:55:08.143Z,100644.41
2022-08-31T13:57:38.404Z,100648.50
2022-08-31T14:00:38.203Z,100643.22
2022-08-31T14:03:33.042Z,100647.81
2022-08-31T14:06:24.858Z,100638.19
2022-08-31T14:08:56.572Z,100641.88
2022-08-31T14:11:28.598Z,100639.94
2022-08-31T14:14:05.918Z,100643.28
2022-08-31T14:16:37.067Z,100640.22
2022-08-31T14:19:05.586Z,100641.91
2022-08-31T14:21:42.055Z,100646.13
2022-08-31T14:24:12.308Z,100642.72
2022-08-31T14:26:42.599Z,100650.34
2022-08-31T14:29:13.647Z,100656.34
2022-08-31T14:31:45.300Z,100657.34
2022-08-31T14:34:25.615Z,100658.00
2022-08-31T14:36:59.029Z,100660.34
2022-08-31T14:39:31.152Z,100655.13
2022-08-31T14:42:01.665Z,100660.44
2022-08-31T14:44:32.984Z,100668.13
2022-08-31T14:47:01.666Z,100666.84
2022-08-31T14:49:36.328Z,100656.09
2022-08-31T14:52:07.413Z,100666.88
2022-08-31T14:54:37.225Z,100665.31
2022-08-31T14:59:40.681Z,100659.84
2022-08-31T15:02:10.098Z,100655.34
2022-08-31T15:04:43.678Z,100654.16
2022-08-31T15:07:16.498Z,100655.91
2022-08-31T15:09:46.873Z,100663.63
2022-08-31T15:12:16.896Z,100652.75
2022-08-31T15:14:47.268Z,100661.38
2022-08-31T15:17:19.855Z,100655.66
2022-08-31T15:19:50.506Z,100651.03
2022-08-31T15:22:20.637Z,100661.16
2022-08-31T15:24:49.690Z,100653.41
2022-08-31T15:27:18.439Z,100654.66
2022-08-31T15:29:48.652Z,100663.00
2022-08-31T15:32:17.608Z,100657.91
2022-08-31T15:34:57.695Z,100655.25
2022-08-31T15:37:30.733Z,100653.84
2022-08-31T15:40:01.537Z,100659.22
2022-08-31T15:42:31.435Z,100668.28
2022-08-31T15:45:00.264Z,100669.06
2022-08-31T15:47:48.143Z,100676.84
2022-08-31T15:50:19.180Z,100663.59
2022-08-31T15:52:51.894Z,100658.63
2022-08-31T15:55:26.444Z,100663.81
2022-08-31T15:57:55.383Z,100672.53
2022-08-31T16:00:24.112Z,100665.50
2022-08-31T16:02:54.800Z,100670.69
2022-08-31T16:05:23.484Z,100667.34
2022-08-31T16:07:57.286Z,100675.47
2022-08-31T16:10:28.124Z,100669.03
2022-08-31T16:12:56.598Z,100668.53
2022-08-31T16:15:26.211Z,100675.53
2022-08-31T16:17:57.630Z,100667.19
2022-08-31T16:20:29.399Z,100672.06
2022-08-31T16:23:01.529Z,100670.56
2022-08-31T16:25:41.901Z,100673.97
2022-08-31T16:28:18.384Z,100664.31
2022-08-31T16:30:46.921Z,100674.25
2022-08-31T16:33:15.216Z,100658.22
2022-08-31T16:35:44.591Z,100672.63
2022-08-31T16:38:14.899Z,100661.84
2022-08-31T16:40:43.261Z,100673.41
2022-08-31T16:43:12.132Z,100674.75
2022-08-31T16:45:41.313Z,100672.03
2022-08-31T16:48:29.576Z,100674.91
2022-08-31T16:51:02.845Z,100675.72
2022-08-31T16:53:32.925Z,100674.06
2022-08-31T16:56:04.182Z,100671.59
2022-08-31T16:58:52.317Z,100682.13
2022-08-31T17:01:23.206Z,100672.03
2022-08-31T17:03:53.430Z,100679.06
2022-08-31T17:06:21.923Z,100676.47
2022-08-31T17:08:54.865Z,100679.81
2022-08-31T17:11:25.061Z,100675.09
2022-08-31T17:13:58.389Z,100674.66
2022-08-31T17:16:28.981Z,100676.03
2022-08-31T17:18:58.712Z,100673.09
2022-08-31T17:21:29.177Z,100676.16
2022-08-31T17:24:01.925Z,100686.88
2022-08-31T17:26:33.854Z,100683.38
2022-08-31T17:29:05.344Z,100686.81
2022-08-31T17:31:36.948Z,100693.56
2022-08-31T17:34:05.290Z,100689.03
2022-08-31T17:36:37.311Z,100690.91
2022-08-31T17:39:08.551Z,100700.34
2022-08-31T17:41:39.871Z,100703.75
2022-08-31T17:44:09.141Z,100702.47
2022-08-31T17:46:38.153Z,100701.97
2022-08-31T17:49:06.491Z,100704.38
2022-08-31T17:51:36.089Z,100698.72
2022-08-31T17:54:10.825Z,100703.81
2022-08-31T17:56:47.445Z,100709.00
2022-08-31T17:59:18.138Z,100700.88
2022-08-31T18:01:48.013Z,100700.16
2022-08-31T18:04:16.776Z,100702.53
2022-08-31T18:06:49.186Z,100700.28
2022-08-31T18:09:22.003Z,100700.91
2022-08-31T18:11:50.527Z,100706.69
2022-08-31T18:14:20.499Z,100703.81
2022-08-31T18:16:49.498Z,100709.25
2022-08-31T18:19:25.553Z,100720.00
2022-08-31T18:21:56.922Z,100716.03
2022-08-31T18:24:27.098Z,100715.72
2022-08-31T18:26:56.784Z,100711.09
2022-08-31T18:29:25.347Z,100716.94
2022-08-31T18:31:56.858Z,100726.78
2022-08-31T18:34:26.854Z,100726.44
2022-08-31T18:36:55.568Z,100722.03
2022-08-31T18:39:50.107Z,100728.69
2022-08-31T18:42:33.665Z,100722.13
2022-08-31T18:45:18.962Z,100722.94
2022-08-31T18:48:13.558Z,100722.66
2022-08-31T18:50:39.190Z,100720.94
2022-08-31T18:53:11.171Z,100722.13
2022-08-31T18:55:45.475Z,100724.97
2022-08-31T18:58:13.962Z,100720.81
2022-08-31T19:00:42.944Z,100727.38
2022-08-31T19:03:13.044Z,100731.22
2022-08-31T19:05:41.529Z,100723.53
2022-08-31T19:08:09.979Z,100725.59
2022-08-31T19:10:38.037Z,100722.72
2022-08-31T19:13:08.003Z,100720.41
2022-08-31T19:15:39.416Z,100724.28
2022-08-31T19:18:08.268Z,100719.59
2022-08-31T19:20:36.724Z,100723.09
2022-08-31T19:23:06.414Z,100723.44
2022-08-31T19:25:35.248Z,100720.13
2022-08-31T19:28:07.979Z,100728.50
2022-08-31T19:30:40.749Z,100724.50
2022-08-31T19:33:11.615Z,100721.47
2022-08-31T19:35:41.205Z,100726.03
2022-08-31T19:38:09.606Z,100725.53
2022-08-31T19:40:39.332Z,100722.28
2022-08-31T19:46:09.605Z,100719.06
2022-08-31T19:48:45.972Z,100718.63
2022-08-31T19:51:15.694Z,100720.31
2022-08-31T19:53:45.182Z,100723.22
2022-08-31T19:56:17.665Z,100725.25
2022-08-31T19:58:48.490Z,100721.31
2022-08-31T20:01:18.944Z,100718.03
2022-08-31T20:03:48.046Z,100726.22
2022-08-31T20:06:21.541Z,100723.94
2022-08-31T20:08:50.788Z,100722.13
2022-08-31T20:11:23.243Z,100717.47
2022-08-31T20:13:52.030Z,100725.66
2022-08-31T20:16:22.268Z,100736.34
2022-08-31T20:19:04.218Z,100728.38
2022-08-31T20:21:35.008Z,100729.53
2022-08-31T20:24:09.093Z,100727.19
2022-08-31T20:26:42.595Z,100723.19
2022-08-31T20:29:18.342Z,100730.88
2022-08-31T20:31:48.638Z,100730.69
2022-08-31T20:34:19.310Z,100737.69
2022-08-31T20:36:50.193Z,100739.00
2022-08-31T20:39:19.746Z,100733.50
2022-08-31T20:41:48.857Z,100737.50
2022-08-31T20:44:19.147Z,100740.69
2022-08-31T20:47:09.043Z,100740.84
2022-08-31T20:49:40.047Z,100739.69
2022-08-31T20:52:09.492Z,100740.19
2022-08-31T20:54:38.318Z,100748.50
2022-08-31T20:57:09.129Z,100738.31
2022-08-31T20:59:38.069Z,100731.81
2022-08-31T21:02:08.587Z,100735.81
2022-08-31T21:04:39.004Z,100733.63
2022-08-31T21:07:09.047Z,100748.97
2022-08-31T21:09:37.364Z,100742.28
2022-08-31T21:12:07.224Z,100747.25
2022-08-31T21:14:36.677Z,100757.06
2022-08-31T21:17:07.786Z,100750.09
2022-08-31T21:19:38.633Z,100753.09
2022-08-31T21:22:08.475Z,100751.56
2022-08-31T21:24:38.576Z,100757.75
2022-08-31T21:27:09.109Z,100758.22
2022-08-31T21:29:38.250Z,100758.72
2022-08-31T21:32:10.505Z,100753.03
2022-08-31T21:34:38.950Z,100763.00
2022-08-31T21:37:09.119Z,100751.31
2022-08-31T21:39:38.440Z,100755.97
2022-08-31T21:42:07.258Z,100756.28
2022-08-31T21:44:36.114Z,100761.78
2022-08-31T21:47:04.999Z,100761.59
2022-08-31T21:49:36.468Z,100766.63
2022-08-31T21:52:04.857Z,100763.94
2022-08-31T21:54:33.180Z,100765.94
2022-08-31T21:57:02.905Z,100768.91
2022-08-31T21:59:35.105Z,100768.25
2022-08-31T22:02:06.460Z,100771.91
2022-08-31T22:04:37.996Z,100760.75
2022-08-31T22:07:07.781Z,100757.94
2022-08-31T22:09:37.694Z,100763.41
2022-08-31T22:12:07.499Z,100765.25
2022-08-31T22:14:38.068Z,100763.41
2022-08-31T22:17:07.064Z,100770.41
2022-08-31T22:19:39.187Z,100770.22
2022-08-31T22:22:12.050Z,100767.75
2022-08-31T22:24:42.124Z,100768.91
2022-08-31T22:27:12.757Z,100774.22
2022-08-31T22:29:41.522Z,100770.56
2022-08-31T22:32:12.881Z,100771.25
2022-08-31T22:34:44.153Z,100769.59
2022-08-31T22:37:14.256Z,100770.22
2022-08-31T22:39:43.491Z,100764.25
2022-08-31T22:42:13.259Z,100764.25
2022-08-31T22:44:43.250Z,100772.38
2022-08-31T22:47:11.963Z,100767.34
2022-08-31T22:49:40.404Z,100766.84
2022-08-31T22:52:14.018Z,100758.81
2022-08-31T22:54:45.958Z,100758.44
2022-08-31T22:57:15.544Z,100760.72
2022-08-31T22:59:44.304Z,100763.03
2022-08-31T23:02:13.101Z,100759.84
2022-08-31T23:04:43.950Z,100757.81
2022-08-31T23:07:16.553Z,100759.59
2022-08-31T23:09:46.123Z,100757.16
2022-08-31T23:12:15.138Z,100757.97
2022-08-31T23:14:43.937Z,100756.91
2022-08-31T23:17:14.008Z,100762.00
2022-08-31T23:19:43.822Z,100759.94
2022-08-31T23:22:15.493Z,100759.03
2022-08-31T23:24:47.106Z,100758.66
2022-08-31T23:27:18.827Z,100753.09
2022-08-31T23:29:53.105Z,100755.53
2022-08-31T23:32:27.692Z,100757.00
2022-08-31T23:34:58.467Z,100756.59
2022-08-31T23:37:30.655Z,100760.56
2022-08-31T23:40:00.816Z,100762.94
2022-08-31T23:42:30.007Z,100769.00
2022-08-31T23:44:59.109Z,100767.09
2022-08-31T23:47:29.593Z,100766.84
2022-08-31T23:49:59.469Z,100769.13
2022-08-31T23:52:41.430Z,100763.41
2022-08-31T23:55:11.588Z,100770.00
2022-08-31T23:57:42.102Z,100769.75
